Boffa — 3XBF — position and weather

sailwx.info

Track history (hours):
 
Tides and Currents Weather Stations Pressure Air Temp Water Temp Dewpoint Dewpoint Depression Visibility Wind Speed Wind Dir Waves Ship Positions

Boffa

Last reported at 2018-Feb-10 19:40 UTC. Time now 2018-Feb-24 15:27 UTC.
Position N 10°12' W 015°60'.
Warning: this ship's position is 13 days out of date.

; draft 5 m.

Type: Fishing. MMSI: 312405000.

Date/timePositionNaut miles runAvg speedWind from/ knotsBaromVisibWave heightAir tempDewpointWater temp
2018-Feb-10 19:40N 10°12' W 015°60'210.1
2018-Feb-10 19:29N 10°12' W 016°01'4 6.7
2018-Feb-10 18:52N 10°16' W 016°00'1 3.9
2018-Feb-10 18:30N 10°17' W 015°59'2 4.7
2018-Feb-10 17:59N 10°14' W 015°59'1 1.7
2018-Feb-10 17:09N 10°13' W 015°58'1 6.9
2018-Feb-10 17:00N 10°14' W 015°58'4 8.6
2018-Feb-10 16:29N 10°10' W 015°58'8 9.7
2018-Feb-10 15:38N 10°04' W 016°03'2 8.7
2018-Feb-10 15:24N 10°02' W 016°03'10 9.4
2018-Feb-10 14:23N 09°53' W 015°60'7 9.3
2018-Feb-10 13:40N 09°47' W 015°57'1 8.9
2018-Feb-10 13:30N 09°45' W 015°56'4 8.9
2018-Feb-10 13:00N 09°41' W 015°54'0 0.8
2018-Feb-10 12:28N 09°41' W 015°55'32 2.9
2018-Feb-10 01:38N 10°13' W 016°01'1 5.8
2018-Feb-10 01:26N 10°12' W 016°01'1 0.6
2018-Feb-10 00:33N 10°11' W 016°01'1 2.7
2018-Feb-10 00:17N 10°12' W 016°01'2 4.5
2018-Feb-09 23:46N 10°14' W 016°01'27 2.7
2018-Feb-09 13:30N 09°60' W 016°25'29 2.3
2018-Feb-09 01:00N 10°15' W 015°60'3 3.4
2018-Feb-09 00:00N 10°12' W 016°02'0 0.2
2018-Feb-08 23:00N 10°12' W 016°02'1 2.6
2018-Feb-08 22:30N 10°14' W 016°02'6 0.4
2018-Feb-08 05:30N 10°16' W 015°56'2 4.9
2018-Feb-08 05:00N 10°17' W 015°58'5 0.9
2018-Feb-07 23:58N 10°15' W 016°02'2 3.9
2018-Feb-07 23:30N 10°16' W 016°01'7 0.3
2018-Feb-07 01:44N 10°13' W 016°07'1 3.8
2018-Feb-07 01:30N 10°14' W 016°07'7 2.0
2018-Feb-06 22:15N 10°15' W 016°00'17 2.3
2018-Feb-06 15:01N 10°01' W 016°10'9 4.3
2018-Feb-06 12:59N 09°55' W 016°16'17 2.2
2018-Feb-06 05:21N 10°07' W 016°04'7 8.5
2018-Feb-06 04:30N 10°11' W 015°58'6 5.2
2018-Feb-06 03:27N 10°16' W 016°01'3 6.9
2018-Feb-06 03:00N 10°13' W 016°02'3 4.2
2018-Feb-06 02:24N 10°12' W 015°59'5 4.1
2018-Feb-06 01:16N 10°08' W 016°01'1 1.6
2018-Feb-06 00:51N 10°07' W 016°01'3 3.1
2018-Feb-06 00:00N 10°08' W 015°58'20 3.6
2018-Feb-05 18:25N 09°57' W 016°16'410.6
2018-Feb-05 18:00N 09°55' W 016°19'510.7
2018-Feb-05 17:30N 09°52' W 016°24'510.3
2018-Feb-05 17:00N 09°48' W 016°28'610.6
2018-Feb-05 16:29N 09°45' W 016°32'510.4
2018-Feb-05 15:59N 09°41' W 016°36'3 6.6
2018-Feb-05 15:30N 09°39' W 016°39'1 1.6
2018-Feb-05 15:00N 09°40' W 016°39'1 1.6
2018-Feb-05 14:30N 09°41' W 016°39'1 1.3
2018-Feb-05 13:36N 09°42' W 016°39'0 1.6
2018-Feb-05 13:30N 09°42' W 016°39'1 1.2
2018-Feb-05 13:00N 09°43' W 016°39'217 8.0
2018-Feb-04 09:57N 08°30' W 013°12'0 0.0
2018-Feb-04 08:59N 08°30' W 013°12'0 0.0
2018-Feb-04 08:30N 08°30' W 013°12'0 0.0
2018-Feb-04 08:00N 08°30' W 013°12'0 0.0
2018-Feb-04 07:30N 08°30' W 013°12'0 0.0
2018-Feb-04 06:35N 08°30' W 013°12'0 0.0
2018-Feb-04 06:25N 08°30' W 013°12'0 0.0
2018-Feb-04 02:12N 08°30' W 013°12'0 0.0
2018-Feb-04 02:00N 08°30' W 013°12'0 0.0
2018-Feb-04 01:29N 08°30' W 013°12'0 0.0
2018-Feb-04 01:00N 08°30' W 013°12'0 0.0
2018-Feb-04 00:29N 08°30' W 013°12'0 0.0
2018-Feb-04 00:00N 08°30' W 013°12'0 0.0
2018-Feb-03 23:30N 08°30' W 013°12'0 0.0
2018-Feb-03 23:00N 08°30' W 013°12'0 0.0
2018-Feb-03 22:30N 08°30' W 013°12'0 0.0
2018-Feb-03 22:00N 08°30' W 013°12'0 0.0
2018-Feb-03 07:45N 08°30' W 013°12'4 3.1
2018-Feb-03 06:30N 08°30' W 013°16'810.2
2018-Feb-03 05:45N 08°30' W 013°24'310.6
2018-Feb-03 05:30N 08°30' W 013°27'510.1
2018-Feb-03 05:00N 08°32' W 013°31'1010.4
2018-Feb-03 04:00N 08°38' W 013°40'510.3
2018-Feb-03 03:30N 08°40' W 013°44'2110.5
2018-Feb-03 01:33N 08°52' W 014°01'011.4
2018-Feb-03 01:30N 08°52' W 014°02'611.3
2018-Feb-03 00:59N 08°56' W 014°07'511.2
2018-Feb-03 00:30N 08°59' W 014°11'611.4
2018-Feb-03 00:00N 09°02' W 014°16'611.4
2018-Feb-02 23:30N 09°05' W 014°21'611.6
2018-Feb-02 23:00N 09°08' W 014°26'611.7
2018-Feb-02 22:30N 09°12' W 014°31'611.8
2018-Feb-02 22:00N 09°15' W 014°35'611.7
2018-Feb-02 21:30N 09°18' W 014°40'611.7
2018-Feb-02 21:00N 09°21' W 014°45'611.4
2018-Feb-02 20:31N 09°25' W 014°50'611.2
2018-Feb-02 20:00N 09°28' W 014°55'1111.1
2018-Feb-02 19:00N 09°34' W 015°04'611.1
2018-Feb-02 18:30N 09°37' W 015°09'611.1
2018-Feb-02 18:00N 09°40' W 015°13'811.1
2018-Feb-02 17:15N 09°45' W 015°20'311.2
2018-Feb-02 17:00N 09°47' W 015°23'47 5.6
2018-Feb-02 08:35N 10°12' W 016°03'1 5.9
2018-Feb-02 08:29N 10°11' W 016°03'2 4.8
2018-Feb-02 08:00N 10°10' W 016°05'5 6.5
2018-Feb-02 07:18N 10°08' W 016°01'3 1.5
2018-Feb-02 05:29N 10°10' W 016°03'6 8.3
2018-Feb-02 04:43N 10°14' W 015°59'2 9.2
2018-Feb-02 04:30N 10°16' W 015°58'3 4.4
2018-Feb-02 03:55N 10°17' W 015°60'3 6.5
2018-Feb-02 03:30N 10°15' W 016°02'3 6.3
2018-Feb-02 03:00N 10°13' W 016°04'4 6.0
2018-Feb-02 02:17N 10°09' W 016°06'2 6.2
2018-Feb-02 02:00N 10°07' W 016°05'5 9.1
2018-Feb-02 01:30N 10°09' W 016°01'2 3.8
2018-Feb-02 01:00N 10°11' W 016°01'1 2.4
2018-Feb-02 00:27N 10°12' W 016°00'2 3.7
2018-Feb-02 00:00N 10°11' W 016°01'2 4.0
2018-Feb-01 23:30N 10°09' W 016°02'2 4.3
2018-Feb-01 23:00N 10°08' W 016°03'0 0.5
2018-Feb-01 22:00N 10°08' W 016°03'511.0
2018-Feb-01 21:30N 10°06' W 016°08'18 1.3
2018-Feb-01 07:30N 09°53' W 015°56'4 8.2
2018-Feb-01 07:00N 09°49' W 015°55'1 2.7
2018-Feb-01 06:30N 09°49' W 015°54'2 4.6
2018-Feb-01 06:00N 09°47' W 015°52'2 3.8
2018-Feb-01 05:30N 09°46' W 015°50'2 4.5
2018-Feb-01 05:00N 09°47' W 015°52'3 2.5
2018-Feb-01 03:50N 09°49' W 015°54'4 4.5
2018-Feb-01 02:58N 09°47' W 015°51'2 3.4
2018-Feb-01 02:30N 09°47' W 015°50'611.7
2018-Feb-01 02:00N 09°50' W 015°45'612.0
2018-Feb-01 01:30N 09°53' W 015°39'4 5.4
2018-Feb-01 00:51N 09°56' W 015°38'3 8.8
2018-Feb-01 00:30N 09°58' W 015°41'510.6
2018-Feb-01 00:00N 09°59' W 015°46'9 8.7
2018-Jan-31 22:57N 09°57' W 015°55'4 9.5
2018-Jan-31 22:30N 09°55' W 015°59'  
Track history (hours):
 
Tides and Currents Weather Stations Pressure Air Temp Water Temp Dewpoint Dewpoint Depression Visibility Wind Speed Wind Dir Waves Ship Positions

Boffa

Last reported at 2018-Feb-10 19:40 UTC. Time now 2018-Feb-24 15:27 UTC.
Position N 10°12' W 015°60'.
Warning: this ship's position is 13 days out of date.

; draft 5 m.

Type: Fishing. MMSI: 312405000.

Date/timePositionNaut miles runAvg speedWind from/ knotsBaromVisibWave heightAir tempDewpointWater temp
2018-Feb-10 19:40N 10°12' W 015°60'210.1
2018-Feb-10 19:29N 10°12' W 016°01'4 6.7
2018-Feb-10 18:52N 10°16' W 016°00'1 3.9
2018-Feb-10 18:30N 10°17' W 015°59'2 4.7
2018-Feb-10 17:59N 10°14' W 015°59'1 1.7
2018-Feb-10 17:09N 10°13' W 015°58'1 6.9
2018-Feb-10 17:00N 10°14' W 015°58'4 8.6
2018-Feb-10 16:29N 10°10' W 015°58'8 9.7
2018-Feb-10 15:38N 10°04' W 016°03'2 8.7
2018-Feb-10 15:24N 10°02' W 016°03'10 9.4
2018-Feb-10 14:23N 09°53' W 015°60'7 9.3
2018-Feb-10 13:40N 09°47' W 015°57'1 8.9
2018-Feb-10 13:30N 09°45' W 015°56'4 8.9
2018-Feb-10 13:00N 09°41' W 015°54'0 0.8
2018-Feb-10 12:28N 09°41' W 015°55'32 2.9
2018-Feb-10 01:38N 10°13' W 016°01'1 5.8
2018-Feb-10 01:26N 10°12' W 016°01'1 0.6
2018-Feb-10 00:33N 10°11' W 016°01'1 2.7
2018-Feb-10 00:17N 10°12' W 016°01'2 4.5
2018-Feb-09 23:46N 10°14' W 016°01'27 2.7
2018-Feb-09 13:30N 09°60' W 016°25'29 2.3
2018-Feb-09 01:00N 10°15' W 015°60'3 3.4
2018-Feb-09 00:00N 10°12' W 016°02'0 0.2
2018-Feb-08 23:00N 10°12' W 016°02'1 2.6
2018-Feb-08 22:30N 10°14' W 016°02'6 0.4
2018-Feb-08 05:30N 10°16' W 015°56'2 4.9
2018-Feb-08 05:00N 10°17' W 015°58'5 0.9
2018-Feb-07 23:58N 10°15' W 016°02'2 3.9
2018-Feb-07 23:30N 10°16' W 016°01'7 0.3
2018-Feb-07 01:44N 10°13' W 016°07'1 3.8
2018-Feb-07 01:30N 10°14' W 016°07'7 2.0
2018-Feb-06 22:15N 10°15' W 016°00'17 2.3
2018-Feb-06 15:01N 10°01' W 016°10'9 4.3
2018-Feb-06 12:59N 09°55' W 016°16'17 2.2
2018-Feb-06 05:21N 10°07' W 016°04'7 8.5
2018-Feb-06 04:30N 10°11' W 015°58'6 5.2
2018-Feb-06 03:27N 10°16' W 016°01'3 6.9
2018-Feb-06 03:00N 10°13' W 016°02'3 4.2
2018-Feb-06 02:24N 10°12' W 015°59'5 4.1
2018-Feb-06 01:16N 10°08' W 016°01'1 1.6
2018-Feb-06 00:51N 10°07' W 016°01'3 3.1
2018-Feb-06 00:00N 10°08' W 015°58'20 3.6
2018-Feb-05 18:25N 09°57' W 016°16'410.6
2018-Feb-05 18:00N 09°55' W 016°19'510.7
2018-Feb-05 17:30N 09°52' W 016°24'510.3
2018-Feb-05 17:00N 09°48' W 016°28'610.6
2018-Feb-05 16:29N 09°45' W 016°32'510.4
2018-Feb-05 15:59N 09°41' W 016°36'3 6.6
2018-Feb-05 15:30N 09°39' W 016°39'1 1.6
2018-Feb-05 15:00N 09°40' W 016°39'1 1.6
2018-Feb-05 14:30N 09°41' W 016°39'1 1.3
2018-Feb-05 13:36N 09°42' W 016°39'0 1.6
2018-Feb-05 13:30N 09°42' W 016°39'1 1.2
2018-Feb-05 13:00N 09°43' W 016°39'217 8.0
2018-Feb-04 09:57N 08°30' W 013°12'0 0.0
2018-Feb-04 08:59N 08°30' W 013°12'0 0.0
2018-Feb-04 08:30N 08°30' W 013°12'0 0.0
2018-Feb-04 08:00N 08°30' W 013°12'0 0.0
2018-Feb-04 07:30N 08°30' W 013°12'0 0.0
2018-Feb-04 06:35N 08°30' W 013°12'0 0.0
2018-Feb-04 06:25N 08°30' W 013°12'0 0.0
2018-Feb-04 02:12N 08°30' W 013°12'0 0.0
2018-Feb-04 02:00N 08°30' W 013°12'0 0.0
2018-Feb-04 01:29N 08°30' W 013°12'0 0.0
2018-Feb-04 01:00N 08°30' W 013°12'0 0.0
2018-Feb-04 00:29N 08°30' W 013°12'0 0.0
2018-Feb-04 00:00N 08°30' W 013°12'0 0.0
2018-Feb-03 23:30N 08°30' W 013°12'0 0.0
2018-Feb-03 23:00N 08°30' W 013°12'0 0.0
2018-Feb-03 22:30N 08°30' W 013°12'0 0.0
2018-Feb-03 22:00N 08°30' W 013°12'0 0.0
2018-Feb-03 07:45N 08°30' W 013°12'4 3.1
2018-Feb-03 06:30N 08°30' W 013°16'810.2
2018-Feb-03 05:45N 08°30' W 013°24'310.6
2018-Feb-03 05:30N 08°30' W 013°27'510.1
2018-Feb-03 05:00N 08°32' W 013°31'1010.4
2018-Feb-03 04:00N 08°38' W 013°40'510.3
2018-Feb-03 03:30N 08°40' W 013°44'2110.5
2018-Feb-03 01:33N 08°52' W 014°01'011.4
2018-Feb-03 01:30N 08°52' W 014°02'611.3
2018-Feb-03 00:59N 08°56' W 014°07'511.2
2018-Feb-03 00:30N 08°59' W 014°11'611.4
2018-Feb-03 00:00N 09°02' W 014°16'611.4
2018-Feb-02 23:30N 09°05' W 014°21'611.6
2018-Feb-02 23:00N 09°08' W 014°26'611.7
2018-Feb-02 22:30N 09°12' W 014°31'611.8
2018-Feb-02 22:00N 09°15' W 014°35'611.7
2018-Feb-02 21:30N 09°18' W 014°40'611.7
2018-Feb-02 21:00N 09°21' W 014°45'611.4
2018-Feb-02 20:31N 09°25' W 014°50'611.2
2018-Feb-02 20:00N 09°28' W 014°55'1111.1
2018-Feb-02 19:00N 09°34' W 015°04'611.1
2018-Feb-02 18:30N 09°37' W 015°09'611.1
2018-Feb-02 18:00N 09°40' W 015°13'811.1
2018-Feb-02 17:15N 09°45' W 015°20'311.2
2018-Feb-02 17:00N 09°47' W 015°23'47 5.6
2018-Feb-02 08:35N 10°12' W 016°03'1 5.9
2018-Feb-02 08:29N 10°11' W 016°03'2 4.8
2018-Feb-02 08:00N 10°10' W 016°05'5 6.5
2018-Feb-02 07:18N 10°08' W 016°01'3 1.5
2018-Feb-02 05:29N 10°10' W 016°03'6 8.3
2018-Feb-02 04:43N 10°14' W 015°59'2 9.2
2018-Feb-02 04:30N 10°16' W 015°58'3 4.4
2018-Feb-02 03:55N 10°17' W 015°60'3 6.5
2018-Feb-02 03:30N 10°15' W 016°02'3 6.3
2018-Feb-02 03:00N 10°13' W 016°04'4 6.0
2018-Feb-02 02:17N 10°09' W 016°06'2 6.2
2018-Feb-02 02:00N 10°07' W 016°05'5 9.1
2018-Feb-02 01:30N 10°09' W 016°01'2 3.8
2018-Feb-02 01:00N 10°11' W 016°01'1 2.4
2018-Feb-02 00:27N 10°12' W 016°00'2 3.7
2018-Feb-02 00:00N 10°11' W 016°01'2 4.0
2018-Feb-01 23:30N 10°09' W 016°02'2 4.3
2018-Feb-01 23:00N 10°08' W 016°03'0 0.5
2018-Feb-01 22:00N 10°08' W 016°03'511.0
2018-Feb-01 21:30N 10°06' W 016°08'18 1.3
2018-Feb-01 07:30N 09°53' W 015°56'4 8.2
2018-Feb-01 07:00N 09°49' W 015°55'1 2.7
2018-Feb-01 06:30N 09°49' W 015°54'2 4.6
2018-Feb-01 06:00N 09°47' W 015°52'2 3.8
2018-Feb-01 05:30N 09°46' W 015°50'2 4.5
2018-Feb-01 05:00N 09°47' W 015°52'3 2.5
2018-Feb-01 03:50N 09°49' W 015°54'4 4.5
2018-Feb-01 02:58N 09°47' W 015°51'2 3.4
2018-Feb-01 02:30N 09°47' W 015°50'611.7
2018-Feb-01 02:00N 09°50' W 015°45'612.0
2018-Feb-01 01:30N 09°53' W 015°39'4 5.4
2018-Feb-01 00:51N 09°56' W 015°38'3 8.8
2018-Feb-01 00:30N 09°58' W 015°41'510.6
2018-Feb-01 00:00N 09°59' W 015°46'9 8.7
2018-Jan-31 22:57N 09°57' W 015°55'4 9.5
2018-Jan-31 22:30N 09°55' W 015°59'  

Dump ship's entire track history